sensor_id;sensor_type;location;lat;lon;timestamp;temperature;humidity
23755;DHT22;12057;52.042;6.830;2023-01-01T00:05:01;15.50;99.90
23755;DHT22;12057;52.042;6.830;2023-01-01T00:10:02;15.50;99.90
23755;DHT22;12057;52.042;6.830;2023-01-01T00:15:32;15.50;99.90
23755;DHT22;12057;52.042;6.830;2023-01-01T00:20:33;15.40;99.90
23755;DHT22;12057;52.042;6.830;2023-01-01T00:25:34;15.40;99.90
23755;DHT22;12057;52.042;6.830;2023-01-01T00:30:38;15.50;99.90
23755;DHT22;12057;52.042;6.830;2023-01-01T00:35:40;15.40;99.90
23755;DHT22;12057;52.042;6.830;2023-01-01T00:40:40;15.50;99.90
23755;DHT22;12057;52.042;6.830;2023-01-01T00:45:42;15.40;99.90
23755;DHT22;12057;52.042;6.830;2023-01-01T00:50:48;15.40;99.90
23755;DHT22;12057;52.042;6.830;2023-01-01T00:55:50;15.50;99.90
23755;DHT22;12057;52.042;6.830;2023-01-01T01:00:52;15.50;99.90
23755;DHT22;12057;52.042;6.830;2023-01-01T01:11:08;15.50;99.90
23755;DHT22;12057;52.042;6.830;2023-01-01T01:21:18;15.40;99.90
23755;DHT22;12057;52.042;6.830;2023-01-01T01:26:23;15.30;99.90
23755;DHT22;12057;52.042;6.830;2023-01-01T01:31:26;15.40;99.90
23755;DHT22;12057;52.042;6.830;2023-01-01T01:36:28;15.30;99.90
23755;DHT22;12057;52.042;6.830;2023-01-01T01:41:29;15.20;99.90
23755;DHT22;12057;52.042;6.830;2023-01-01T01:51:38;15.30;99.90
23755;DHT22;12057;52.042;6.830;2023-01-01T01:56:53;15.20;99.90
23755;DHT22;12057;52.042;6.830;2023-01-01T02:01:55;15.20;99.90
23755;DHT22;12057;52.042;6.830;2023-01-01T02:06:56;15.20;99.90
23755;DHT22;12057;52.042;6.830;2023-01-01T02:11:58;15.20;99.90
23755;DHT22;12057;52.042;6.830;2023-01-01T02:17:01;15.20;99.90
23755;DHT22;12057;52.042;6.830;2023-01-01T02:22:19;15.20;99.90
23755;DHT22;12057;52.042;6.830;2023-01-01T02:32:33;15.00;99.90
23755;DHT22;12057;52.042;6.830;2023-01-01T02:37:35;15.00;99.90
23755;DHT22;12057;52.042;6.830;2023-01-01T02:42:36;15.00;99.90
23755;DHT22;12057;52.042;6.830;2023-01-01T02:47:37;14.90;99.90
23755;DHT22;12057;52.042;6.830;2023-01-01T03:03:43;14.90;99.90
23755;DHT22;12057;52.042;6.830;2023-01-01T03:14:33;14.80;99.90
23755;DHT22;12057;52.042;6.830;2023-01-01T03:19:33;14.70;99.90
23755;DHT22;12057;52.042;6.830;2023-01-01T03:24:44;14.80;99.90
23755;DHT22;12057;52.042;6.830;2023-01-01T03:29:46;14.80;99.90
23755;DHT22;12057;52.042;6.830;2023-01-01T03:34:53;14.80;99.90
23755;DHT22;12057;52.042;6.830;2023-01-01T03:39:56;14.70;99.90
23755;DHT22;12057;52.042;6.830;2023-01-01T03:45:25;14.70;99.90
23755;DHT22;12057;52.042;6.830;2023-01-01T03:50:55;14.60;99.90
23755;DHT22;12057;52.042;6.830;2023-01-01T03:56:24;14.60;99.90
23755;DHT22;12057;52.042;6.830;2023-01-01T04:01:32;14.60;99.90
23755;DHT22;12057;52.042;6.830;2023-01-01T04:06:35;14.50;99.90
23755;DHT22;12057;52.042;6.830;2023-01-01T04:11:39;14.50;99.90
23755;DHT22;12057;52.042;6.830;2023-01-01T04:17:00;14.40;99.90
23755;DHT22;12057;52.042;6.830;2023-01-01T04:22:01;14.40;99.90
23755;DHT22;12057;52.042;6.830;2023-01-01T04:27:03;14.40;99.90
23755;DHT22;12057;52.042;6.830;2023-01-01T04:32:04;14.50;99.90
23755;DHT22;12057;52.042;6.830;2023-01-01T04:37:04;14.50;99.90
23755;DHT22;12057;52.042;6.830;2023-01-01T04:42:05;14.50;99.90
23755;DHT22;12057;52.042;6.830;2023-01-01T04:47:06;14.40;99.90
23755;DHT22;12057;52.042;6.830;2023-01-01T04:52:07;14.40;99.90
23755;DHT22;12057;52.042;6.830;2023-01-01T04:57:08;14.50;99.90
23755;DHT22;12057;52.042;6.830;2023-01-01T05:02:09;14.40;99.90
23755;DHT22;12057;52.042;6.830;2023-01-01T05:07:10;14.50;99.90
23755;DHT22;12057;52.042;6.830;2023-01-01T05:12:10;14.50;99.90
23755;DHT22;12057;52.042;6.830;2023-01-01T05:17:11;14.40;99.90
23755;DHT22;12057;52.042;6.830;2023-01-01T05:22:12;14.40;99.90
23755;DHT22;12057;52.042;6.830;2023-01-01T05:27:13;14.50;99.90
23755;DHT22;12057;52.042;6.830;2023-01-01T05:32:13;14.50;99.90
23755;DHT22;12057;52.042;6.830;2023-01-01T05:37:14;14.50;99.90
23755;DHT22;12057;52.042;6.830;2023-01-01T05:42:15;14.50;99.90
23755;DHT22;12057;52.042;6.830;2023-01-01T05:47:17;14.50;99.90
23755;DHT22;12057;52.042;6.830;2023-01-01T05:52:18;14.50;99.90
23755;DHT22;12057;52.042;6.830;2023-01-01T05:57:19;14.50;99.90
23755;DHT22;12057;52.042;6.830;2023-01-01T06:02:20;14.40;99.90
23755;DHT22;12057;52.042;6.830;2023-01-01T06:07:24;14.40;99.90
23755;DHT22;12057;52.042;6.830;2023-01-01T06:12:24;14.40;99.90
23755;DHT22;12057;52.042;6.830;2023-01-01T06:17:25;14.30;99.90
23755;DHT22;12057;52.042;6.830;2023-01-01T06:22:26;14.30;99.90
23755;DHT22;12057;52.042;6.830;2023-01-01T06:27:27;14.30;99.90
23755;DHT22;12057;52.042;6.830;2023-01-01T06:32:27;14.30;99.90
23755;DHT22;12057;52.042;6.830;2023-01-01T06:37:28;14.20;99.90
23755;DHT22;12057;52.042;6.830;2023-01-01T06:42:29;14.20;99.90
23755;DHT22;12057;52.042;6.830;2023-01-01T06:47:33;14.20;99.90
23755;DHT22;12057;52.042;6.830;2023-01-01T06:52:34;14.20;99.90
23755;DHT22;12057;52.042;6.830;2023-01-01T06:57:34;14.10;99.90
23755;DHT22;12057;52.042;6.830;2023-01-01T07:02:35;14.00;99.90
23755;DHT22;12057;52.042;6.830;2023-01-01T07:07:36;14.00;99.90
23755;DHT22;12057;52.042;6.830;2023-01-01T07:12:37;14.00;99.90
23755;DHT22;12057;52.042;6.830;2023-01-01T07:17:38;14.00;99.90
23755;DHT22;12057;52.042;6.830;2023-01-01T07:22:39;14.00;99.90
23755;DHT22;12057;52.042;6.830;2023-01-01T07:27:40;13.90;99.90
23755;DHT22;12057;52.042;6.830;2023-01-01T07:32:41;13.60;99.90
23755;DHT22;12057;52.042;6.830;2023-01-01T07:37:41;13.50;99.90
23755;DHT22;12057;52.042;6.830;2023-01-01T07:42:42;13.30;99.90
23755;DHT22;12057;52.042;6.830;2023-01-01T07:47:49;13.20;99.90
23755;DHT22;12057;52.042;6.830;2023-01-01T07:52:50;13.20;99.90
23755;DHT22;12057;52.042;6.830;2023-01-01T07:57:51;13.10;99.90
23755;DHT22;12057;52.042;6.830;2023-01-01T08:02:52;13.10;99.90
23755;DHT22;12057;52.042;6.830;2023-01-01T08:07:56;13.00;99.90
23755;DHT22;12057;52.042;6.830;2023-01-01T08:13:01;13.00;99.90
23755;DHT22;12057;52.042;6.830;2023-01-01T08:18:04;12.90;99.90
23755;DHT22;12057;52.042;6.830;2023-01-01T08:23:04;12.90;99.90
23755;DHT22;12057;52.042;6.830;2023-01-01T08:28:05;12.80;99.90
23755;DHT22;12057;52.042;6.830;2023-01-01T08:33:06;12.70;99.90
23755;DHT22;12057;52.042;6.830;2023-01-01T08:38:10;12.60;99.90
23755;DHT22;12057;52.042;6.830;2023-01-01T08:43:11;12.60;99.90
23755;DHT22;12057;52.042;6.830;2023-01-01T08:48:12;12.50;99.90
23755;DHT22;12057;52.042;6.830;2023-01-01T08:53:13;12.50;99.90
23755;DHT22;12057;52.042;6.830;2023-01-01T08:58:13;12.40;99.90
23755;DHT22;12057;52.042;6.830;2023-01-01T09:03:14;12.40;99.90
23755;DHT22;12057;52.042;6.830;2023-01-01T09:08:16;12.30;99.90
23755;DHT22;12057;52.042;6.830;2023-01-01T09:13:19;12.20;99.90
23755;DHT22;12057;52.042;6.830;2023-01-01T09:18:20;12.10;99.90
23755;DHT22;12057;52.042;6.830;2023-01-01T09:23:21;12.10;99.90
23755;DHT22;12057;52.042;6.830;2023-01-01T09:28:21;12.00;99.90
23755;DHT22;12057;52.042;6.830;2023-01-01T09:33:22;11.90;99.90
23755;DHT22;12057;52.042;6.830;2023-01-01T09:38:23;11.90;99.90
23755;DHT22;12057;52.042;6.830;2023-01-01T09:48:51;11.90;99.90
23755;DHT22;12057;52.042;6.830;2023-01-01T09:54:09;11.90;99.90
23755;DHT22;12057;52.042;6.830;2023-01-01T09:59:12;11.90;99.90
23755;DHT22;12057;52.042;6.830;2023-01-01T10:14:40;11.80;99.90
23755;DHT22;12057;52.042;6.830;2023-01-01T10:19:49;11.80;99.90
23755;DHT22;12057;52.042;6.830;2023-01-01T10:25:00;11.70;99.90
23755;DHT22;12057;52.042;6.830;2023-01-01T10:30:05;11.70;99.90
23755;DHT22;12057;52.042;6.830;2023-01-01T10:35:17;11.70;99.90
23755;DHT22;12057;52.042;6.830;2023-01-01T10:40:21;11.80;99.90
23755;DHT22;12057;52.042;6.830;2023-01-01T10:45:35;11.80;99.90
23755;DHT22;12057;52.042;6.830;2023-01-01T11:01:00;11.80;99.90
23755;DHT22;12057;52.042;6.830;2023-01-01T11:11:03;11.80;99.90
23755;DHT22;12057;52.042;6.830;2023-01-01T11:16:09;11.80;99.90
23755;DHT22;12057;52.042;6.830;2023-01-01T11:21:18;11.80;99.90
23755;DHT22;12057;52.042;6.830;2023-01-01T11:26:22;11.80;99.90
23755;DHT22;12057;52.042;6.830;2023-01-01T11:31:34;11.90;99.90
23755;DHT22;12057;52.042;6.830;2023-01-01T11:36:36;12.00;99.90
23755;DHT22;12057;52.042;6.830;2023-01-01T11:41:46;12.00;99.90
23755;DHT22;12057;52.042;6.830;2023-01-01T11:46:48;12.10;99.90
23755;DHT22;12057;52.042;6.830;2023-01-01T11:51:49;12.10;99.90
23755;DHT22;12057;52.042;6.830;2023-01-01T11:56:53;12.10;99.90
23755;DHT22;12057;52.042;6.830;2023-01-01T12:01:58;12.10;99.90
23755;DHT22;12057;52.042;6.830;2023-01-01T12:07:07;12.20;99.90
23755;DHT22;12057;52.042;6.830;2023-01-01T12:17:17;12.50;99.90
23755;DHT22;12057;52.042;6.830;2023-01-01T12:22:19;12.60;99.90
23755;DHT22;12057;52.042;6.830;2023-01-01T12:43:53;12.70;99.90
23755;DHT22;12057;52.042;6.830;2023-01-01T12:54:40;12.90;99.90
23755;DHT22;12057;52.042;6.830;2023-01-01T12:59:47;12.90;99.90
23755;DHT22;12057;52.042;6.830;2023-01-01T13:04:56;13.10;99.90
23755;DHT22;12057;52.042;6.830;2023-01-01T13:10:05;13.30;99.90
23755;DHT22;12057;52.042;6.830;2023-01-01T13:15:49;13.60;99.90
23755;DHT22;12057;52.042;6.830;2023-01-01T13:20:55;13.70;99.90
23755;DHT22;12057;52.042;6.830;2023-01-01T13:26:29;13.90;99.90
23755;DHT22;12057;52.042;6.830;2023-01-01T13:36:43;13.70;99.90
23755;DHT22;12057;52.042;6.830;2023-01-01T13:41:44;13.60;99.90
23755;DHT22;12057;52.042;6.830;2023-01-01T14:03:10;13.10;99.90
23755;DHT22;12057;52.042;6.830;2023-01-01T14:13:40;13.10;99.90
23755;DHT22;12057;52.042;6.830;2023-01-01T14:18:47;13.00;99.90
23755;DHT22;12057;52.042;6.830;2023-01-01T14:24:01;13.00;99.90
23755;DHT22;12057;52.042;6.830;2023-01-01T14:29:07;13.00;99.90
23755;DHT22;12057;52.042;6.830;2023-01-01T14:34:28;12.90;99.90
23755;DHT22;12057;52.042;6.830;2023-01-01T14:39:35;12.90;99.90
23755;DHT22;12057;52.042;6.830;2023-01-01T14:44:42;12.80;99.90
23755;DHT22;12057;52.042;6.830;2023-01-01T14:49:43;12.80;99.90
23755;DHT22;12057;52.042;6.830;2023-01-01T14:54:45;12.80;99.90
23755;DHT22;12057;52.042;6.830;2023-01-01T14:59:47;12.70;99.90
23755;DHT22;12057;52.042;6.830;2023-01-01T15:04:48;12.70;99.90
23755;DHT22;12057;52.042;6.830;2023-01-01T15:09:53;12.60;99.90
23755;DHT22;12057;52.042;6.830;2023-01-01T15:14:55;12.60;99.90
23755;DHT22;12057;52.042;6.830;2023-01-01T15:20:03;12.60;99.90
23755;DHT22;12057;52.042;6.830;2023-01-01T15:25:28;12.50;99.90
23755;DHT22;12057;52.042;6.830;2023-01-01T15:30:36;12.50;99.90
23755;DHT22;12057;52.042;6.830;2023-01-01T15:35:37;12.40;99.90
23755;DHT22;12057;52.042;6.830;2023-01-01T15:40:38;12.40;99.90
23755;DHT22;12057;52.042;6.830;2023-01-01T15:45:49;12.30;99.90
23755;DHT22;12057;52.042;6.830;2023-01-01T15:55:56;12.30;99.90
23755;DHT22;12057;52.042;6.830;2023-01-01T16:01:04;12.30;99.90
23755;DHT22;12057;52.042;6.830;2023-01-01T16:06:06;12.30;99.90
23755;DHT22;12057;52.042;6.830;2023-01-01T16:11:07;12.40;99.90
23755;DHT22;12057;52.042;6.830;2023-01-01T16:16:28;12.40;99.90
23755;DHT22;12057;52.042;6.830;2023-01-01T16:21:30;12.30;99.90
23755;DHT22;12057;52.042;6.830;2023-01-01T16:26:34;12.40;99.90
23755;DHT22;12057;52.042;6.830;2023-01-01T16:31:36;12.30;99.90
23755;DHT22;12057;52.042;6.830;2023-01-01T16:36:37;12.40;99.90
23755;DHT22;12057;52.042;6.830;2023-01-01T16:41:42;12.30;99.90
23755;DHT22;12057;52.042;6.830;2023-01-01T16:46:43;12.40;99.90
23755;DHT22;12057;52.042;6.830;2023-01-01T16:51:44;12.40;99.90
23755;DHT22;12057;52.042;6.830;2023-01-01T16:56:45;12.40;99.90
23755;DHT22;12057;52.042;6.830;2023-01-01T17:01:46;12.40;99.90
23755;DHT22;12057;52.042;6.830;2023-01-01T17:06:47;12.40;99.90
23755;DHT22;12057;52.042;6.830;2023-01-01T17:11:47;12.40;99.90
23755;DHT22;12057;52.042;6.830;2023-01-01T17:16:48;12.50;99.90
23755;DHT22;12057;52.042;6.830;2023-01-01T17:21:52;12.40;99.90
23755;DHT22;12057;52.042;6.830;2023-01-01T17:26:53;12.30;99.90
23755;DHT22;12057;52.042;6.830;2023-01-01T17:31:54;12.30;99.90
23755;DHT22;12057;52.042;6.830;2023-01-01T17:36:55;12.30;99.90
23755;DHT22;12057;52.042;6.830;2023-01-01T17:41:56;12.20;99.90
23755;DHT22;12057;52.042;6.830;2023-01-01T17:46:57;12.20;99.90
23755;DHT22;12057;52.042;6.830;2023-01-01T17:51:58;12.10;99.90
23755;DHT22;12057;52.042;6.830;2023-01-01T17:56:59;12.10;99.90
23755;DHT22;12057;52.042;6.830;2023-01-01T18:02:03;12.00;99.90
23755;DHT22;12057;52.042;6.830;2023-01-01T18:07:05;12.00;99.90
23755;DHT22;12057;52.042;6.830;2023-01-01T18:12:06;11.90;99.90
23755;DHT22;12057;52.042;6.830;2023-01-01T18:17:07;11.80;99.90
23755;DHT22;12057;52.042;6.830;2023-01-01T18:22:07;11.70;99.90
23755;DHT22;12057;52.042;6.830;2023-01-01T18:27:08;11.70;99.90
23755;DHT22;12057;52.042;6.830;2023-01-01T18:32:09;11.70;99.90
23755;DHT22;12057;52.042;6.830;2023-01-01T18:37:10;11.60;99.90
23755;DHT22;12057;52.042;6.830;2023-01-01T18:47:19;11.60;99.90
23755;DHT22;12057;52.042;6.830;2023-01-01T18:52:25;11.60;99.90
23755;DHT22;12057;52.042;6.830;2023-01-01T18:57:26;11.60;99.90
23755;DHT22;12057;52.042;6.830;2023-01-01T19:02:37;11.60;99.90
23755;DHT22;12057;52.042;6.830;2023-01-01T19:07:38;11.50;99.90
23755;DHT22;12057;52.042;6.830;2023-01-01T19:12:40;11.50;99.90
23755;DHT22;12057;52.042;6.830;2023-01-01T19:17:41;11.50;99.90
23755;DHT22;12057;52.042;6.830;2023-01-01T19:22:42;11.50;99.90
23755;DHT22;12057;52.042;6.830;2023-01-01T19:27:43;11.40;99.90
23755;DHT22;12057;52.042;6.830;2023-01-01T19:32:43;11.40;99.90
23755;DHT22;12057;52.042;6.830;2023-01-01T19:37:46;11.30;99.90
23755;DHT22;12057;52.042;6.830;2023-01-01T19:42:47;11.30;99.90
23755;DHT22;12057;52.042;6.830;2023-01-01T19:47:48;11.30;99.90
23755;DHT22;12057;52.042;6.830;2023-01-01T19:52:49;11.30;99.90
23755;DHT22;12057;52.042;6.830;2023-01-01T19:57:49;11.30;99.90
23755;DHT22;12057;52.042;6.830;2023-01-01T20:02:50;11.30;99.90
23755;DHT22;12057;52.042;6.830;2023-01-01T20:07:51;11.30;99.90
23755;DHT22;12057;52.042;6.830;2023-01-01T20:12:52;11.30;99.90
23755;DHT22;12057;52.042;6.830;2023-01-01T20:17:52;11.30;99.90
23755;DHT22;12057;52.042;6.830;2023-01-01T20:22:53;11.30;99.90
23755;DHT22;12057;52.042;6.830;2023-01-01T20:27:54;11.30;99.90
23755;DHT22;12057;52.042;6.830;2023-01-01T20:33:27;11.20;99.90
23755;DHT22;12057;52.042;6.830;2023-01-01T20:38:28;11.20;99.90
23755;DHT22;12057;52.042;6.830;2023-01-01T20:43:28;11.20;99.90
23755;DHT22;12057;52.042;6.830;2023-01-01T20:48:29;11.30;99.90
23755;DHT22;12057;52.042;6.830;2023-01-01T20:53:30;11.30;99.90
23755;DHT22;12057;52.042;6.830;2023-01-01T20:58:31;11.30;99.90
23755;DHT22;12057;52.042;6.830;2023-01-01T21:03:32;11.30;99.90
23755;DHT22;12057;52.042;6.830;2023-01-01T21:08:32;11.30;99.90
23755;DHT22;12057;52.042;6.830;2023-01-01T21:13:33;11.30;99.90
23755;DHT22;12057;52.042;6.830;2023-01-01T21:18:34;11.40;99.90
23755;DHT22;12057;52.042;6.830;2023-01-01T21:23:35;11.30;99.90
23755;DHT22;12057;52.042;6.830;2023-01-01T21:28:36;11.40;99.90
23755;DHT22;12057;52.042;6.830;2023-01-01T21:33:41;11.40;99.90
23755;DHT22;12057;52.042;6.830;2023-01-01T21:38:43;11.40;99.90
23755;DHT22;12057;52.042;6.830;2023-01-01T21:43:47;11.40;99.90
23755;DHT22;12057;52.042;6.830;2023-01-01T21:59:17;11.50;99.90
23755;DHT22;12057;52.042;6.830;2023-01-01T22:04:34;11.50;99.90
23755;DHT22;12057;52.042;6.830;2023-01-01T22:09:44;11.40;99.90
23755;DHT22;12057;52.042;6.830;2023-01-01T22:14:53;11.30;99.90
23755;DHT22;12057;52.042;6.830;2023-01-01T22:20:14;11.40;99.90
23755;DHT22;12057;52.042;6.830;2023-01-01T22:25:28;11.50;99.90
23755;DHT22;12057;52.042;6.830;2023-01-01T22:30:32;11.40;99.90
23755;DHT22;12057;52.042;6.830;2023-01-01T22:35:36;11.40;99.90
23755;DHT22;12057;52.042;6.830;2023-01-01T22:40:37;11.40;99.90
23755;DHT22;12057;52.042;6.830;2023-01-01T22:45:46;11.30;99.90
23755;DHT22;12057;52.042;6.830;2023-01-01T22:50:47;11.30;99.90
23755;DHT22;12057;52.042;6.830;2023-01-01T22:55:48;11.30;99.90
23755;DHT22;12057;52.042;6.830;2023-01-01T23:00:49;11.40;99.90
23755;DHT22;12057;52.042;6.830;2023-01-01T23:05:51;11.30;99.90
23755;DHT22;12057;52.042;6.830;2023-01-01T23:10:53;11.30;99.90
23755;DHT22;12057;52.042;6.830;2023-01-01T23:15:54;11.40;99.90
23755;DHT22;12057;52.042;6.830;2023-01-01T23:21:05;11.40;99.90
23755;DHT22;12057;52.042;6.830;2023-01-01T23:26:11;11.40;99.90
23755;DHT22;12057;52.042;6.830;2023-01-01T23:31:13;11.40;99.90
23755;DHT22;12057;52.042;6.830;2023-01-01T23:36:14;11.50;99.90
23755;DHT22;12057;52.042;6.830;2023-01-01T23:41:15;11.60;99.90
23755;DHT22;12057;52.042;6.830;2023-01-01T23:46:17;11.60;99.90
23755;DHT22;12057;52.042;6.830;2023-01-01T23:51:18;11.60;99.90
23755;DHT22;12057;52.042;6.830;2023-01-01T23:56:19;11.60;99.90
